Time;durP1;ratioP1;P1;durP2;ratioP2;P2;SDS_P1;SDS_P2;PMS_P1;PMS_P2;Temp;Humidity;BMP_temperature;BMP_pressure;BME280_temperature;BME280_humidity;BME280_pressure;Samples;Min_cycle;Max_cycle;Signal;HPM_P1;HPM_P2
2023/07/24 04:30:25;;;;;;;8.40;2.70;;;16.60;86.60;;;;;;6021848;23;20037;31
2023/07/24 04:32:51;;;;;;;10.00;3.30;;;16.60;86.60;;;;;;4855490;29;20062;-75
2023/07/24 04:35:16;;;;;;;13.25;3.20;;;16.70;86.40;;;;;;4863196;29;20030;-75
2023/07/24 04:37:42;;;;;;;7.05;2.65;;;16.60;86.60;;;;;;4865044;29;20517;-76
2023/07/24 04:40:08;;;;;;;7.10;3.30;;;16.60;86.60;;;;;;4848389;29;20033;-75
2023/07/24 04:42:34;;;;;;;9.75;2.92;;;16.70;86.40;;;;;;4863966;29;20029;-76
2023/07/24 04:44:59;;;;;;;9.00;2.90;;;16.70;86.40;;;;;;4864876;29;20040;-76
2023/07/24 04:47:25;;;;;;;9.00;3.08;;;16.60;86.70;;;;;;4865171;29;20033;-76
2023/07/24 04:49:51;;;;;;;15.43;4.55;;;16.60;86.80;;;;;;4864953;29;20085;-76
2023/07/24 04:52:16;;;;;;;9.13;3.10;;;16.70;86.70;;;;;;4863784;29;20026;-76
2023/07/24 04:54:42;;;;;;;9.43;3.22;;;16.70;86.70;;;;;;4856455;29;20032;-79
2023/07/24 04:57:07;;;;;;;8.90;3.33;;;16.70;86.80;;;;;;4863758;29;20041;-79
2023/07/24 04:59:33;;;;;;;11.65;3.88;;;16.80;86.70;;;;;;4864842;29;20226;-79
2023/07/24 05:01:59;;;;;;;10.32;3.17;;;16.80;86.60;;;;;;4859364;29;20133;-84
2023/07/24 05:04:24;;;;;;;8.43;2.80;;;16.80;86.30;;;;;;4850390;29;20033;-84
2023/07/24 05:06:50;;;;;;;7.97;3.00;;;16.80;86.40;;;;;;4871159;29;20033;-81
2023/07/24 05:09:15;;;;;;;10.65;3.40;;;16.90;86.30;;;;;;4879812;29;20029;-80
2023/07/24 05:11:44;;;;;;;9.13;3.13;;;16.90;86.30;;;;;;4862184;29;20033;-80
2023/07/24 05:14:10;;;;;;;10.98;3.17;;;16.90;86.30;;;;;;4853297;29;20026;-88
2023/07/24 05:16:36;;;;;;;11.77;3.85;;;16.90;86.30;;;;;;4845285;29;20097;-83
2023/07/24 05:19:01;;;;;;;8.35;3.10;;;16.90;86.40;;;;;;4850332;29;20511;-84
2023/07/24 05:21:27;;;;;;;11.88;4.03;;;17.00;86.50;;;;;;4857969;29;20034;-83
2023/07/24 05:23:53;;;;;;;10.90;3.40;;;16.90;86.30;;;;;;4846386;29;20557;-83
2023/07/24 05:26:18;;;;;;;6.90;3.00;;;17.00;86.40;;;;;;4848922;29;20040;-82
2023/07/24 05:28:44;;;;;;;11.65;2.95;;;17.00;86.00;;;;;;4847209;29;20033;-85
2023/07/24 05:31:10;;;;;;;9.20;3.38;;;17.00;86.20;;;;;;4861418;29;20064;-84
2023/07/24 05:33:35;;;;;;;7.78;3.40;;;17.10;86.50;;;;;;4848525;29;20034;-83
2023/07/24 05:36:04;;;;;;;8.50;2.58;;;17.10;86.20;;;;;;4846117;29;20053;-84
2023/07/24 05:38:30;;;;;;;9.38;3.38;;;17.20;86.10;;;;;;4866098;29;20033;-86
2023/07/24 05:40:56;;;;;;;8.95;2.80;;;17.20;86.20;;;;;;4858495;29;20067;-84
2023/07/24 05:43:22;;;;;;;11.25;3.17;;;17.10;86.20;;;;;;4845419;29;20034;-79
2023/07/24 05:45:48;;;;;;;6.70;2.90;;;17.20;86.10;;;;;;4844663;29;20086;-87
2023/07/24 05:48:13;;;;;;;11.55;3.05;;;17.20;85.90;;;;;;4853848;29;20656;-82
2023/07/24 05:50:40;;;;;;;10.85;3.13;;;17.10;86.20;;;;;;4864212;29;20508;-86
2023/07/24 05:53:06;;;;;;;10.00;3.05;;;17.10;86.30;;;;;;4847649;29;20040;-88
2023/07/24 05:55:32;;;;;;;10.27;2.60;;;17.20;86.30;;;;;;4858972;29;20046;-86
2023/07/24 05:57:57;;;;;;;8.40;2.97;;;17.20;86.10;;;;;;4845383;29;20029;-88
2023/07/24 06:00:23;;;;;;;8.35;2.80;;;17.30;86.20;;;;;;4830208;29;20106;-88
2023/07/24 06:02:49;;;;;;;8.98;3.03;;;17.30;86.00;;;;;;4857430;29;20030;-89
2023/07/24 06:05:14;;;;;;;10.55;3.30;;;17.30;86.20;;;;;;4861666;29;20116;-87
2023/07/24 06:07:40;;;;;;;8.77;3.45;;;17.30;86.00;;;;;;4862129;29;20157;-81
2023/07/24 06:10:06;;;;;;;9.95;3.40;;;17.30;86.20;;;;;;4859224;29;20063;-84
2023/07/24 06:12:32;;;;;;;10.63;3.30;;;17.50;85.90;;;;;;4864988;29;20018;-84
2023/07/24 06:14:57;;;;;;;10.02;2.92;;;17.60;85.60;;;;;;4857272;29;20042;-86
2023/07/24 06:17:23;;;;;;;8.65;2.83;;;17.60;85.60;;;;;;4850656;29;20034;-84
2023/07/24 06:19:48;;;;;;;12.45;3.08;;;17.70;85.20;;;;;;4862153;29;20057;-85
2023/07/24 06:22:14;;;;;;;10.13;2.70;;;17.70;85.30;;;;;;4858231;29;20037;-83
2023/07/24 06:24:40;;;;;;;5.55;2.83;;;17.80;85.20;;;;;;4842896;29;20030;-84
2023/07/24 06:27:06;;;;;;;10.10;2.75;;;17.80;85.10;;;;;;4844493;29;20497;-84
2023/07/24 06:29:32;;;;;;;7.82;3.22;;;17.80;85.30;;;;;;4843798;29;20090;-84
2023/07/24 06:31:58;;;;;;;10.02;2.90;;;17.90;85.30;;;;;;4854587;29;20078;-84
2023/07/24 06:34:23;;;;;;;10.35;3.50;;;17.90;85.10;;;;;;4828338;29;20038;-84
2023/07/24 06:36:49;;;;;;;8.07;2.70;;;17.90;85.00;;;;;;4827786;29;20046;-83
2023/07/24 06:39:15;;;;;;;7.65;2.97;;;17.90;85.00;;;;;;4828373;29;20038;-84
2023/07/24 06:41:41;;;;;;;8.60;2.75;;;17.80;85.10;;;;;;4844482;29;20034;-84
2023/07/24 06:44:07;;;;;;;8.50;3.47;;;17.80;85.10;;;;;;4856943;29;20037;-83
2023/07/24 06:46:34;;;;;;;7.50;3.03;;;17.80;84.70;;;;;;4861505;29;20065;-83
2023/07/24 06:48:59;;;;;;;9.55;2.72;;;17.90;85.00;;;;;;4862177;29;20062;-83
2023/07/24 06:51:25;;;;;;;14.88;2.63;;;17.90;85.00;;;;;;4860273;29;20131;-84
2023/07/24 06:53:50;;;;;;;11.65;3.20;;;17.90;84.50;;;;;;4847774;29;20086;-84
2023/07/24 06:56:16;;;;;;;8.60;2.90;;;18.00;84.90;;;;;;4843365;29;20038;-84
2023/07/24 06:58:42;;;;;;;8.85;2.25;;;18.00;84.70;;;;;;4858788;29;20033;-82
2023/07/24 07:01:08;;;;;;;11.10;2.63;;;18.00;84.70;;;;;;4855684;29;20096;-84
2023/07/24 07:03:34;;;;;;;6.82;2.90;;;17.90;85.40;;;;;;4858523;29;20034;-84
2023/07/24 07:06:00;;;;;;;11.40;2.80;;;17.90;85.90;;;;;;4861434;29;20076;-84
2023/07/24 07:08:26;;;;;;;13.35;3.15;;;17.80;86.00;;;;;;4860477;29;20030;-85
2023/07/24 07:10:59;;;;;;;6.72;3.08;;;17.80;86.40;;;;;;4868965;29;20039;-84
2023/07/24 07:13:25;;;;;;;10.82;3.53;;;17.80;86.60;;;;;;4862649;29;20033;-85
2023/07/24 07:15:51;;;;;;;11.98;3.33;;;17.80;86.60;;;;;;4849659;29;20037;-85
2023/07/24 07:18:16;;;;;;;10.50;3.60;;;17.80;86.80;;;;;;4861344;29;20040;-84
2023/07/24 07:20:46;;;;;;;10.27;2.85;;;17.80;86.90;;;;;;4860387;29;20041;-84
2023/07/24 07:23:12;;;;;;;12.30;3.17;;;17.80;86.80;;;;;;4843186;29;20038;-83
2023/07/24 07:25:38;;;;;;;10.30;3.33;;;17.80;86.70;;;;;;4843173;29;20063;-84
2023/07/24 07:28:04;;;;;;;8.93;2.60;;;17.80;87.00;;;;;;4847567;29;20026;-83
2023/07/24 07:30:29;;;;;;;7.13;2.75;;;17.80;86.40;;;;;;4848202;29;20049;-83
2023/07/24 07:32:55;;;;;;;11.15;3.13;;;17.80;86.80;;;;;;4855755;29;20029;-83
2023/07/24 07:35:21;;;;;;;14.45;2.67;;;17.90;86.50;;;;;;4859527;29;20045;-84
2023/07/24 07:37:46;;;;;;;12.65;3.05;;;17.90;86.60;;;;;;4861345;29;20088;-83
2023/07/24 07:40:12;;;;;;;6.80;2.55;;;17.90;87.10;;;;;;4861299;29;20189;-83
2023/07/24 07:42:38;;;;;;;11.43;2.70;;;18.00;86.90;;;;;;4861461;29;20071;-84
2023/07/24 07:45:04;;;;;;;6.63;2.80;;;17.90;86.90;;;;;;4848204;29;20049;-83
2023/07/24 07:47:30;;;;;;;12.80;3.10;;;18.10;86.80;;;;;;4861467;29;20033;-83
2023/07/24 07:49:55;;;;;;;12.95;3.17;;;18.20;86.80;;;;;;4864845;29;20037;-84
2023/07/24 07:52:22;;;;;;;9.68;3.35;;;18.30;86.70;;;;;;4862308;29;20032;-82
2023/07/24 07:54:49;;;;;;;10.88;3.30;;;18.30;86.50;;;;;;4846196;29;20044;-83
2023/07/24 07:57:15;;;;;;;10.88;3.22;;;18.20;86.50;;;;;;4847460;29;20135;-84
2023/07/24 07:59:41;;;;;;;10.50;3.72;;;18.20;86.70;;;;;;4846924;29;20033;-84
2023/07/24 08:02:07;;;;;;;8.52;2.63;;;18.30;86.50;;;;;;4860568;29;20110;-84
2023/07/24 08:04:33;;;;;;;8.05;2.85;;;18.30;86.40;;;;;;4865722;29;20073;-84
2023/07/24 08:06:58;;;;;;;10.25;2.88;;;18.60;86.40;;;;;;4864874;29;20028;-85
2023/07/24 08:09:24;;;;;;;12.73;2.78;;;18.80;86.10;;;;;;4863780;29;20067;-84
2023/07/24 08:11:53;;;;;;;9.85;2.97;;;19.00;85.30;;;;;;4866487;29;20025;-84
2023/07/24 08:14:19;;;;;;;9.68;2.97;;;19.10;85.20;;;;;;4865050;29;20033;-84
2023/07/24 08:16:47;;;;;;;8.65;2.70;;;19.30;84.50;;;;;;4865514;29;20033;-84
2023/07/24 08:19:13;;;;;;;8.07;2.80;;;19.70;84.20;;;;;;4864140;29;20110;-83
2023/07/24 08:21:40;;;;;;;9.93;2.90;;;19.80;83.60;;;;;;4865430;29;20524;-84
2023/07/24 08:24:06;;;;;;;11.13;3.08;;;19.80;83.30;;;;;;4864981;29;20116;-84
2023/07/24 08:26:32;;;;;;;7.53;2.92;;;19.90;82.90;;;;;;4864631;29;20053;-84
2023/07/24 08:28:57;;;;;;;8.70;3.03;;;20.20;82.40;;;;;;4847256;29;20120;-84
2023/07/24 08:31:23;;;;;;;8.93;3.05;;;20.30;82.30;;;;;;4847605;29;20109;-84
2023/07/24 08:33:49;;;;;;;6.88;2.92;;;20.30;81.60;;;;;;4863756;29;20133;-83
2023/07/24 08:36:14;;;;;;;11.63;3.17;;;20.30;81.90;;;;;;4865481;29;20044;-84
2023/07/24 08:38:40;;;;;;;10.63;3.10;;;20.20;81.50;;;;;;4845150;29;20064;-84
2023/07/24 08:41:09;;;;;;;10.98;2.72;;;20.00;81.70;;;;;;4845643;29;20116;-84
2023/07/24 08:43:36;;;;;;;10.02;3.00;;;20.00;80.80;;;;;;4844595;29;20054;-83
2023/07/24 08:46:03;;;;;;;10.50;2.88;;;20.10;81.60;;;;;;4845911;29;20090;-84
2023/07/24 08:48:35;;;;;;;7.60;3.05;;;20.20;81.90;;;;;;4862994;29;20029;-84
2023/07/24 08:51:12;;;;;;;7.30;2.47;;;20.60;81.10;;;;;;4864836;29;20017;-85
2023/07/24 08:53:40;;;;;;;6.00;2.20;;;21.20;79.00;;;;;;4864448;29;20044;-84
2023/07/24 08:56:12;;;;;;;7.28;2.58;;;21.30;79.20;;;;;;4860342;29;20029;-83
2023/07/24 08:58:39;;;;;;;5.72;2.38;;;21.00;78.40;;;;;;4846398;29;20065;-83
2023/07/24 09:01:05;;;;;;;6.88;2.10;;;20.90;78.90;;;;;;4861425;29;20030;-83
2023/07/24 09:03:32;;;;;;;5.22;2.00;;;20.90;78.90;;;;;;4862621;29;20037;-83
2023/07/24 09:05:58;;;;;;;5.55;1.75;;;21.00;78.30;;;;;;4862401;29;20029;-84
2023/07/24 09:08:35;;;;;;;6.38;1.98;;;21.10;77.60;;;;;;4846407;29;20091;-84
2023/07/24 09:11:02;;;;;;;6.93;2.05;;;21.30;77.60;;;;;;4844125;29;20025;-85
2023/07/24 09:13:28;;;;;;;6.50;2.10;;;21.10;77.30;;;;;;4862365;29;20428;-84
2023/07/24 09:15:54;;;;;;;6.18;1.85;;;21.70;75.70;;;;;;4862948;29;20033;-83
2023/07/24 09:18:21;;;;;;;6.88;2.10;;;21.80;76.50;;;;;;4861363;29;20041;-84
2023/07/24 09:20:47;;;;;;;8.02;2.03;;;22.10;75.80;;;;;;4860958;29;20033;-83
2023/07/24 09:23:13;;;;;;;5.20;1.70;;;22.50;73.10;;;;;;4859806;29;20101;-83
2023/07/24 09:25:42;;;;;;;5.10;1.77;;;22.70;72.10;;;;;;4860678;29;20037;-84
2023/07/24 09:28:17;;;;;;;4.68;1.80;;;22.30;72.90;;;;;;4846287;29;20033;-84
2023/07/24 09:30:52;;;;;;;5.38;1.75;;;21.90;73.70;;;;;;4845202;29;20556;-84
2023/07/24 09:33:18;;;;;;;4.93;1.88;;;21.40;74.70;;;;;;4862764;29;20060;-83
2023/07/24 09:35:43;;;;;;;8.02;1.80;;;22.30;73.40;;;;;;4863526;29;20033;-84
2023/07/24 09:38:11;;;;;;;7.28;1.80;;;23.30;70.50;;;;;;4863495;29;20029;-84
2023/07/24 09:40:47;;;;;;;4.70;1.95;;;23.50;69.40;;;;;;4862850;29;20026;-84
2023/07/24 09:43:20;;;;;;;5.47;2.00;;;23.80;69.00;;;;;;4863802;29;20064;-85
2023/07/24 09:45:47;;;;;;;4.75;1.52;;;24.80;64.90;;;;;;4847265;29;20037;-85
2023/07/24 09:48:14;;;;;;;8.13;1.83;;;24.70;64.70;;;;;;4862910;29;20036;-84
2023/07/24 09:50:42;;;;;;;6.38;1.98;;;23.80;66.90;;;;;;4876023;29;20569;-84
2023/07/24 09:53:15;;;;;;;4.93;1.60;;;23.50;68.10;;;;;;4862086;29;20029;-84
2023/07/24 09:55:52;;;;;;;3.72;1.40;;;23.70;67.60;;;;;;4877761;29;20414;-85
2023/07/24 09:58:20;;;;;;;5.20;1.63;;;24.50;66.10;;;;;;4851407;29;20045;-84
2023/07/24 10:00:48;;;;;;;4.28;1.70;;;24.20;65.10;;;;;;4843754;29;20077;-85
2023/07/24 10:03:15;;;;;;;3.97;1.40;;;23.70;66.00;;;;;;4858805;29;20378;-84
2023/07/24 10:05:42;;;;;;;2.22;1.15;;;23.50;66.40;;;;;;4863471;29;20030;-84
2023/07/24 10:08:09;;;;;;;4.20;1.30;;;23.50;66.10;;;;;;4846709;29;20170;-84
2023/07/24 10:10:35;;;;;;;3.88;1.58;;;23.30;66.60;;;;;;4849069;29;20044;-83
2023/07/24 10:13:01;;;;;;;6.35;1.45;;;23.30;66.50;;;;;;4861662;29;20037;-84
2023/07/24 10:15:28;;;;;;;4.05;1.42;;;23.20;67.50;;;;;;4862864;29;20489;-84
2023/07/24 10:18:02;;;;;;;5.32;1.42;;;23.80;67.80;;;;;;4862668;29;20668;-85
2023/07/24 10:20:36;;;;;;;3.58;1.48;;;23.90;66.00;;;;;;4863099;29;20029;-85
2023/07/24 10:23:06;;;;;;;4.25;1.55;;;23.80;66.10;;;;;;4855193;29;20042;-84
2023/07/24 10:25:37;;;;;;;3.28;1.42;;;23.70;66.00;;;;;;4858649;29;20034;-84
2023/07/24 10:28:10;;;;;;;3.83;1.67;;;23.60;66.80;;;;;;4844731;29;20032;-84
2023/07/24 10:30:37;;;;;;;6.30;1.70;;;23.60;67.00;;;;;;4860067;29;20049;-84
2023/07/24 10:33:20;;;;;;;4.57;1.63;;;23.80;66.70;;;;;;4861850;29;20048;-84
2023/07/24 10:35:47;;;;;;;3.50;1.70;;;24.50;65.30;;;;;;4861859;29;20061;-84
2023/07/24 10:38:15;;;;;;;3.50;1.30;;;25.50;63.40;;;;;;4863153;29;20041;-85
2023/07/24 10:40:42;;;;;;;4.55;1.00;;;25.90;61.20;;;;;;4863227;29;20021;-85
2023/07/24 10:43:13;;;;;;;6.05;1.50;;;26.00;60.60;;;;;;4863067;29;20029;-84
2023/07/24 10:45:51;;;;;;;4.07;1.35;;;25.80;61.40;;;;;;4850232;29;20045;-84
2023/07/24 10:48:21;;;;;;;3.30;1.27;;;25.20;60.70;;;;;;4844487;29;20033;-84
2023/07/24 10:50:49;;;;;;;5.53;1.33;;;24.80;61.60;;;;;;4844243;29;20050;-85
2023/07/24 10:53:16;;;;;;;4.35;1.10;;;24.60;62.70;;;;;;4844505;29;20045;-84
2023/07/24 10:55:50;;;;;;;4.40;1.35;;;24.50;63.80;;;;;;4847124;29;20044;-84
2023/07/24 10:58:16;;;;;;;2.72;1.15;;;24.60;64.60;;;;;;4863025;29;20026;-84
2023/07/24 11:00:43;;;;;;;2.30;1.10;;;24.70;62.70;;;;;;4846177;29;20038;-85
2023/07/24 11:03:14;;;;;;;3.47;1.02;;;24.70;63.00;;;;;;4856442;29;20058;-84
2023/07/24 11:05:44;;;;;;;6.25;1.27;;;24.80;62.70;;;;;;4875215;29;20034;-84
2023/07/24 11:08:17;;;;;;;3.95;1.08;;;24.40;62.00;;;;;;4842545;29;20090;-84
2023/07/24 11:10:57;;;;;;;3.00;1.00;;;24.30;63.50;;;;;;4863519;29;20029;-83
2023/07/24 11:13:24;;;;;;;5.22;1.20;;;24.20;63.20;;;;;;4863035;29;20435;-84
2023/07/24 11:15:51;;;;;;;3.90;1.38;;;24.10;63.60;;;;;;4857433;29;20113;-83
2023/07/24 11:18:17;;;;;;;4.85;1.13;;;23.90;64.90;;;;;;4843255;29;20057;-87
2023/07/24 11:20:54;;;;;;;3.33;1.20;;;23.80;66.40;;;;;;4843251;29;20033;-88
2023/07/24 11:23:20;;;;;;;2.78;1.17;;;23.80;66.40;;;;;;4845156;29;20038;-88
2023/07/24 11:25:46;;;;;;;6.10;1.50;;;23.80;64.70;;;;;;4865084;29;20033;-90
2023/07/24 11:28:13;;;;;;;3.20;1.20;;;23.70;64.70;;;;;;4867655;29;20038;-89
2023/07/24 11:30:40;;;;;;;3.83;1.38;;;23.70;63.90;;;;;;4866374;29;20452;-86
2023/07/24 11:33:07;;;;;;;3.97;1.20;;;23.80;63.60;;;;;;4848676;29;20385;-83
2023/07/24 11:35:35;;;;;;;3.40;1.20;;;23.80;64.40;;;;;;4866497;29;20033;-84
2023/07/24 11:38:01;;;;;;;3.13;1.50;;;23.70;64.80;;;;;;4864248;29;20120;-86
2023/07/24 11:40:36;;;;;;;3.13;1.33;;;23.90;66.90;;;;;;4865668;29;20036;-86
2023/07/24 11:43:03;;;;;;;2.80;1.08;;;24.20;65.40;;;;;;4865669;29;20072;-87
2023/07/24 11:45:30;;;;;;;3.97;1.42;;;24.30;66.10;;;;;;4864753;29;20038;-85
2023/07/24 11:47:56;;;;;;;2.58;0.98;;;24.20;66.00;;;;;;4864010;29;20413;-85
2023/07/24 11:50:23;;;;;;;2.83;1.00;;;24.10;65.40;;;;;;4866162;29;20029;-86
2023/07/24 11:52:50;;;;;;;1.77;0.70;;;24.30;65.10;;;;;;4864782;29;20036;-86
2023/07/24 11:55:19;;;;;;;3.72;0.98;;;24.40;62.80;;;;;;4865141;29;20556;-86
2023/07/24 11:58:05;;;;;;;3.50;0.98;;;24.60;63.90;;;;;;4864434;29;20042;-85
2023/07/24 12:00:33;;;;;;;2.97;0.90;;;24.80;62.60;;;;;;4865217;29;20045;-84
2023/07/24 12:03:04;;;;;;;1.85;0.90;;;24.80;62.30;;;;;;4863239;29;20039;-84
2023/07/24 12:05:37;;;;;;;2.53;1.00;;;24.70;61.80;;;;;;4864532;29;20044;-84
2023/07/24 12:08:02;;;;;;;2.20;0.90;;;24.80;62.60;;;;;;4847612;29;20165;-85
2023/07/24 12:10:28;;;;;;;2.80;1.15;;;25.00;60.70;;;;;;4847042;29;20058;-84
2023/07/24 12:12:57;;;;;;;3.58;1.20;;;24.90;59.70;;;;;;4863130;29;20587;-85
2023/07/24 12:15:23;;;;;;;3.75;0.95;;;25.00;59.30;;;;;;4862216;29;20025;-84
2023/07/24 12:17:49;;;;;;;1.95;1.00;;;25.10;60.40;;;;;;4863889;29;20040;-85
2023/07/24 12:20:14;;;;;;;4.10;1.10;;;25.00;61.20;;;;;;4864248;29;20037;-84
2023/07/24 12:22:40;;;;;;;3.20;1.38;;;25.00;60.70;;;;;;4864710;29;20029;-84
2023/07/24 12:25:06;;;;;;;2.38;1.23;;;24.80;60.30;;;;;;4864289;29;20110;-84
2023/07/24 12:27:32;;;;;;;4.47;1.05;;;24.60;61.50;;;;;;4864012;29;20022;-84
2023/07/24 12:29:59;;;;;;;4.22;1.15;;;24.30;62.50;;;;;;4864240;29;20074;-84
2023/07/24 12:32:24;;;;;;;3.90;1.20;;;24.00;63.10;;;;;;4864273;29;20600;-84
2023/07/24 12:34:51;;;;;;;3.13;1.33;;;24.10;63.90;;;;;;4864776;29;20186;-84
2023/07/24 12:37:20;;;;;;;3.35;1.13;;;24.30;63.80;;;;;;4864074;29;20030;-84
2023/07/24 12:39:47;;;;;;;3.35;1.33;;;24.40;63.80;;;;;;4864069;29;20044;-84
2023/07/24 12:42:13;;;;;;;4.97;1.35;;;24.50;64.60;;;;;;4863947;29;20636;-83
2023/07/24 12:44:38;;;;;;;3.80;1.27;;;24.50;61.90;;;;;;4865466;29;20129;-84
2023/07/24 12:47:04;;;;;;;3.65;1.20;;;24.80;63.30;;;;;;4864718;29;20072;-84
2023/07/24 12:49:30;;;;;;;4.70;1.42;;;24.80;63.80;;;;;;4863304;29;20029;-86
2023/07/24 12:51:56;;;;;;;5.53;1.48;;;25.10;63.10;;;;;;4862432;29;20026;-84
2023/07/24 12:54:22;;;;;;;4.82;1.42;;;25.10;62.20;;;;;;4847412;29;20062;-84
2023/07/24 12:56:49;;;;;;;2.55;1.20;;;25.20;60.70;;;;;;4864785;29;20026;-84
2023/07/24 12:59:15;;;;;;;5.30;1.42;;;25.20;60.30;;;;;;4863623;29;20062;-84
2023/07/24 13:01:41;;;;;;;4.32;1.33;;;25.20;60.40;;;;;;4836179;29;20132;-85
2023/07/24 13:04:07;;;;;;;5.25;1.40;;;25.00;61.30;;;;;;4863471;29;20121;-84
2023/07/24 13:06:33;;;;;;;5.03;1.60;;;25.10;62.00;;;;;;4864358;29;20089;-83
2023/07/24 13:08:59;;;;;;;4.25;1.25;;;25.00;60.70;;;;;;4847462;29;20688;-84
2023/07/24 13:11:25;;;;;;;3.97;1.25;;;24.90;60.90;;;;;;4858324;29;20026;-84
2023/07/24 13:13:50;;;;;;;3.85;1.42;;;24.90;61.20;;;;;;4852698;29;20037;-84
2023/07/24 13:16:17;;;;;;;5.07;1.60;;;25.00;62.10;;;;;;4845876;29;20087;-82
2023/07/24 13:18:43;;;;;;;3.83;1.50;;;25.00;60.70;;;;;;4844627;29;20038;-84
2023/07/24 13:21:08;;;;;;;3.97;1.45;;;25.20;60.50;;;;;;4853633;29;20148;-84
2023/07/24 13:23:34;;;;;;;6.53;1.55;;;25.30;58.80;;;;;;4861160;29;20038;-84
2023/07/24 13:26:00;;;;;;;5.75;1.60;;;25.60;59.20;;;;;;4863013;29;20034;-84
2023/07/24 13:28:26;;;;;;;3.78;1.60;;;25.50;58.00;;;;;;4861732;29;20112;-83
2023/07/24 13:30:52;;;;;;;6.25;1.33;;;25.60;58.50;;;;;;4862182;29;20505;-85
2023/07/24 13:33:18;;;;;;;7.75;1.90;;;25.60;58.00;;;;;;4862452;29;20034;-83
2023/07/24 13:35:44;;;;;;;4.85;1.70;;;25.30;57.80;;;;;;4862264;29;20488;-84
2023/07/24 13:38:10;;;;;;;3.65;1.20;;;25.50;59.00;;;;;;4862598;29;20038;-84
2023/07/24 13:40:36;;;;;;;5.70;1.70;;;25.20;58.20;;;;;;4862735;29;20060;-84
2023/07/24 13:43:02;;;;;;;4.93;1.52;;;25.00;58.60;;;;;;4862529;29;20033;-84
2023/07/24 13:45:28;;;;;;;4.50;1.50;;;24.60;59.80;;;;;;4860757;29;20147;-83
2023/07/24 13:47:54;;;;;;;5.35;1.60;;;24.20;60.90;;;;;;4861035;29;20089;-84
2023/07/24 13:50:20;;;;;;;4.13;1.98;;;23.90;62.40;;;;;;4861899;29;20036;-84
2023/07/24 13:52:45;;;;;;;8.27;2.15;;;23.40;71.40;;;;;;4862870;29;20029;-83
2023/07/24 13:55:11;;;;;;;9.90;2.40;;;22.40;78.30;;;;;;4861640;29;20035;-83
2023/07/24 13:57:36;;;;;;;6.53;2.17;;;22.00;81.00;;;;;;4862431;29;20516;-83
2023/07/24 14:00:03;;;;;;;10.20;2.25;;;21.80;81.20;;;;;;4862209;29;20040;-83
2023/07/24 14:02:29;;;;;;;6.45;2.00;;;21.90;80.70;;;;;;4861757;29;20033;-83
2023/07/24 14:04:54;;;;;;;7.40;2.10;;;22.20;80.90;;;;;;4861951;29;20081;-83
2023/07/24 14:07:20;;;;;;;8.52;2.17;;;22.50;79.50;;;;;;4841769;29;20049;-82
2023/07/24 14:09:45;;;;;;;7.43;2.30;;;22.90;79.40;;;;;;4860851;29;20025;-82
2023/07/24 14:12:11;;;;;;;6.72;2.40;;;23.30;79.40;;;;;;4843363;29;20038;-83
2023/07/24 14:14:37;;;;;;;5.35;2.00;;;23.40;78.10;;;;;;4859619;29;20029;-82
2023/07/24 14:17:02;;;;;;;7.25;2.00;;;23.60;77.30;;;;;;4861974;29;20048;-82
2023/07/24 14:19:28;;;;;;;6.10;2.75;;;23.50;76.70;;;;;;4861809;29;20497;-83
2023/07/24 14:21:54;;;;;;;6.15;2.13;;;23.70;77.50;;;;;;4859947;29;20039;-83
2023/07/24 14:24:19;;;;;;;5.05;2.10;;;23.90;77.50;;;;;;4859265;29;20081;-83
2023/07/24 14:26:45;;;;;;;7.80;2.50;;;24.00;77.30;;;;;;4860500;29;20037;-84
2023/07/24 14:29:11;;;;;;;5.22;2.35;;;24.00;77.30;;;;;;4860965;29;20033;-83
2023/07/24 14:31:37;;;;;;;6.78;2.75;;;24.00;75.90;;;;;;4844670;29;20129;-85
2023/07/24 14:34:03;;;;;;;7.55;2.35;;;24.00;76.80;;;;;;4842646;29;20058;-83
2023/07/24 14:36:33;;;;;;;5.28;2.47;;;23.80;75.80;;;;;;4860389;29;20404;-83
2023/07/24 14:39:00;;;;;;;16.88;2.70;;;23.70;75.60;;;;;;4861583;29;20032;-85
2023/07/24 14:41:26;;;;;;;7.03;2.33;;;23.90;76.60;;;;;;4858392;29;20068;-83
2023/07/24 14:43:52;;;;;;;5.40;2.30;;;24.30;77.00;;;;;;4857284;29;20044;-83
2023/07/24 14:46:18;;;;;;;4.75;2.42;;;24.40;73.50;;;;;;4860377;29;20505;-82
2023/07/24 14:48:43;;;;;;;6.22;2.15;;;24.20;74.70;;;;;;4859462;29;20033;-83
2023/07/24 14:51:09;;;;;;;3.25;1.83;;;23.90;74.90;;;;;;4861817;29;20037;-82
2023/07/24 14:53:36;;;;;;;3.17;1.80;;;23.80;74.80;;;;;;4861609;29;20173;-83
2023/07/24 14:56:02;;;;;;;4.30;1.90;;;23.70;74.70;;;;;;4860364;29;20029;-83
2023/07/24 14:58:28;;;;;;;5.13;1.95;;;23.40;74.90;;;;;;4860058;29;20045;-82
2023/07/24 15:00:54;;;;;;;3.80;2.10;;;23.20;74.60;;;;;;4860119;29;20041;-83
2023/07/24 15:03:19;;;;;;;4.40;2.10;;;22.90;75.30;;;;;;4844726;29;20035;-84
2023/07/24 15:05:45;;;;;;;5.93;2.38;;;22.80;76.00;;;;;;4861033;29;20041;-83
2023/07/24 15:08:10;;;;;;;4.70;2.50;;;22.60;76.10;;;;;;4860665;29;20100;-83
2023/07/24 15:10:36;;;;;;;6.88;3.25;;;22.50;76.20;;;;;;4861730;29;20032;-82
2023/07/24 15:13:02;;;;;;;4.53;2.20;;;22.40;76.10;;;;;;4861543;29;20038;-83
2023/07/24 15:15:27;;;;;;;4.05;2.45;;;22.30;76.80;;;;;;4859102;29;20081;-83
2023/07/24 15:17:53;;;;;;;4.45;2.45;;;22.10;77.00;;;;;;4860932;29;20075;-83
2023/07/24 15:20:18;;;;;;;5.80;2.50;;;22.00;77.40;;;;;;4860915;29;20061;-85
2023/07/24 15:22:44;;;;;;;8.27;3.17;;;21.90;77.90;;;;;;4841045;29;20046;-84
2023/07/24 15:25:10;;;;;;;6.18;2.83;;;21.80;79.00;;;;;;4859519;29;20492;-84
2023/07/24 15:27:35;;;;;;;8.00;3.05;;;21.80;79.80;;;;;;4861442;29;20625;-84
2023/07/24 15:30:01;;;;;;;6.30;2.88;;;21.70;79.90;;;;;;4859978;29;20111;-84
2023/07/24 15:32:27;;;;;;;5.25;2.97;;;21.60;80.00;;;;;;4861228;29;20064;-84
2023/07/24 15:34:52;;;;;;;8.95;3.15;;;21.60;80.10;;;;;;4841951;29;20030;-82
2023/07/24 15:37:18;;;;;;;6.72;3.33;;;21.60;80.30;;;;;;4861272;29;20090;-82
2023/07/24 15:39:44;;;;;;;7.65;3.42;;;21.60;80.00;;;;;;4860156;29;20500;-82
2023/07/24 15:42:09;;;;;;;5.97;3.03;;;21.60;80.20;;;;;;4859326;29;20497;-82
2023/07/24 15:44:35;;;;;;;6.43;3.70;;;21.60;80.20;;;;;;4861030;29;20062;-82
2023/07/24 15:47:00;;;;;;;8.57;3.63;;;21.50;80.30;;;;;;4859780;29;20037;-82
2023/07/24 15:49:26;;;;;;;7.95;3.90;;;21.40;80.60;;;;;;4861347;29;20030;-83
2023/07/24 15:51:52;;;;;;;7.22;3.20;;;21.40;80.70;;;;;;4858646;29;20037;-82
2023/07/24 15:54:17;;;;;;;8.77;3.65;;;21.30;80.60;;;;;;4862731;29;20062;-82
2023/07/24 15:56:43;;;;;;;8.68;3.55;;;21.30;80.90;;;;;;4849754;29;20033;-81
2023/07/24 15:59:11;;;;;;;9.07;4.45;;;21.30;81.20;;;;;;4869024;29;20045;-82
2023/07/24 16:01:37;;;;;;;7.45;4.15;;;21.20;81.40;;;;;;4868367;29;20021;-82
2023/07/24 16:04:02;;;;;;;10.52;4.15;;;21.30;81.30;;;;;;4866395;29;20039;-83
2023/07/24 16:06:28;;;;;;;8.45;4.28;;;21.30;81.10;;;;;;4864478;29;20041;-82
2023/07/24 16:08:54;;;;;;;11.80;4.07;;;21.30;81.10;;;;;;4869678;29;20485;-82
2023/07/24 16:11:19;;;;;;;7.60;4.40;;;21.30;81.00;;;;;;4866859;29;20108;-83
2023/07/24 16:13:45;;;;;;;9.20;4.65;;;21.40;80.90;;;;;;4868373;29;20034;-83
2023/07/24 16:16:11;;;;;;;9.25;4.60;;;21.50;80.90;;;;;;4868222;29;20049;-83
2023/07/24 16:18:36;;;;;;;9.90;5.13;;;21.60;80.80;;;;;;4869488;29;20061;-83
2023/07/24 16:21:02;;;;;;;7.97;4.78;;;21.60;80.70;;;;;;4866284;29;20041;-83
2023/07/24 16:23:28;;;;;;;9.57;4.38;;;21.80;80.60;;;;;;4864987;29;20037;-83
2023/07/24 16:25:54;;;;;;;10.25;4.68;;;21.80;80.40;;;;;;4868641;29;20033;-83
2023/07/24 16:28:21;;;;;;;8.05;4.38;;;21.70;80.50;;;;;;4866339;29;20872;-83
2023/07/24 16:30:47;;;;;;;7.05;4.40;;;21.60;80.70;;;;;;4871076;29;20115;-83
2023/07/24 16:33:13;;;;;;;10.75;4.47;;;21.60;80.60;;;;;;4872498;29;20489;-83
2023/07/24 16:35:38;;;;;;;9.85;4.35;;;21.60;80.60;;;;;;4871733;29;20520;-83
2023/07/24 16:38:04;;;;;;;8.30;4.72;;;21.60;80.50;;;;;;4871295;29;20025;-83
2023/07/24 16:40:29;;;;;;;10.38;4.70;;;21.60;80.10;;;;;;4864197;29;20046;-82
2023/07/24 16:42:55;;;;;;;9.68;4.53;;;21.50;80.30;;;;;;4861952;29;20098;-81
2023/07/24 16:45:21;;;;;;;8.02;5.05;;;21.50;80.40;;;;;;4862960;29;20112;-83
2023/07/24 16:47:46;;;;;;;9.10;4.97;;;21.50;80.30;;;;;;4853649;29;20056;-90
2023/07/24 16:50:12;;;;;;;9.82;4.68;;;21.50;80.40;;;;;;4853346;29;20132;-86
2023/07/24 16:52:38;;;;;;;6.93;4.28;;;21.50;80.30;;;;;;4847181;29;20074;-85
2023/07/24 16:55:04;;;;;;;9.80;4.60;;;21.30;80.20;;;;;;4846997;29;20034;-82
2023/07/24 16:57:30;;;;;;;8.52;4.65;;;21.30;80.40;;;;;;4851522;29;20034;-83
2023/07/24 16:59:56;;;;;;;9.38;4.65;;;21.20;80.60;;;;;;4873158;29;20048;-91
2023/07/24 17:02:22;;;;;;;9.90;5.03;;;21.10;80.90;;;;;;4869372;29;20085;-87
2023/07/24 17:04:47;;;;;;;11.48;4.75;;;21.00;81.00;;;;;;4868947;29;20130;-84
2023/07/24 17:07:13;;;;;;;9.60;4.50;;;21.00;80.90;;;;;;4868939;29;20108;-83
2023/07/24 17:09:39;;;;;;;9.95;4.25;;;20.90;80.80;;;;;;4864152;29;20048;-88
2023/07/24 17:12:08;;;;;;;10.65;5.15;;;20.90;80.80;;;;;;4872399;29;20078;-86